world map with TRK marked

TRK - Airport

This information may not be accurate or current and is not valid for navigation or flight planning. No warranty of fitness for any purpose is made or implied.

flag of Indonesia

Donate via PayPal

Additional information is available on the NEW Great Circle Mapper

Location
City:  Tarakan, Kalimantan (Borneo), Indonesia
Name:Juwata
ICAO / IATA:WALR / TRK

Details
Type:Airport (Aerodrome, Airfield)
Latitude:3°19'36"N (3.326694)
Longitude:117°33'56"E (117.565569)
Datum:WGS 1984
Elevation:20 ft (6 m)
Runways:1
Longest:6045 × 95 ft (1843 × 29 m)

Time
Timezone:UTC+8
Local Time:

Weather
METAR:WALR  (expired)
TAF:WALR  231100Z 2312/2412 00000KT 8000 FEW015 TEMPO 2316/2319 6000 RA BECMG 2320/2321 00000KT 8000 FEW015 BECMG 2402/2403 28004KT 9999 SCT015

Related Locations
Nearby:
Farthest:CIZ: 12363 mi / 19896 km
Coari, AM, BR

Find:

   beyond  
but within

Other Information
Maps:
Links:
Sources:

  


 


Great Circle Mapper   Great Circle Mapper
Great Circle Mapper FAQ   Great Circle Mapper FAQ
  Karl's Home Page
KLSē   KLSē Home
   GC on Facebook
Airlines of the World   Airlines of the World
Donate via PayPal


Copyright © 2004-2014, Karl L. Swartz. All rights reserved.
All trademarks mentioned herein belong to their respective owners.

Please see credits for attribution and copyright information.

Karl Swartz <karl@kls2.com>
  Powered by FreeBSD
Valid HTML 4.01!
Labeled with ICRA
hCard Microformat
Geo Microformat